sensor_id;sensor_type;location;lat;lon;timestamp;P1;durP1;ratioP1;P2;durP2;ratioP2
55210;SDS011;41082;52.822;6.666;2023-04-10T00:00:07;46.00;;;32.88;;
55210;SDS011;41082;52.822;6.666;2023-04-10T00:02:33;48.45;;;32.60;;
55210;SDS011;41082;52.822;6.666;2023-04-10T00:05:01;49.90;;;32.92;;
55210;SDS011;41082;52.822;6.666;2023-04-10T00:07:27;48.70;;;33.45;;
55210;SDS011;41082;52.822;6.666;2023-04-10T00:09:53;50.72;;;34.45;;
55210;SDS011;41082;52.822;6.666;2023-04-10T00:12:18;49.60;;;33.88;;
55210;SDS011;41082;52.822;6.666;2023-04-10T00:14:44;51.15;;;33.88;;
55210;SDS011;41082;52.822;6.666;2023-04-10T00:17:10;47.20;;;33.15;;
55210;SDS011;41082;52.822;6.666;2023-04-10T00:19:35;52.17;;;34.83;;
55210;SDS011;41082;52.822;6.666;2023-04-10T00:22:01;48.38;;;35.35;;
55210;SDS011;41082;52.822;6.666;2023-04-10T00:24:27;49.20;;;35.20;;
55210;SDS011;41082;52.822;6.666;2023-04-10T00:26:53;55.22;;;36.58;;
55210;SDS011;41082;52.822;6.666;2023-04-10T00:29:20;50.17;;;33.97;;
55210;SDS011;41082;52.822;6.666;2023-04-10T00:31:46;50.35;;;35.95;;
55210;SDS011;41082;52.822;6.666;2023-04-10T00:34:11;54.13;;;35.97;;
55210;SDS011;41082;52.822;6.666;2023-04-10T00:36:38;49.65;;;35.53;;
55210;SDS011;41082;52.822;6.666;2023-04-10T00:39:03;55.50;;;39.00;;
55210;SDS011;41082;52.822;6.666;2023-04-10T00:41:29;52.42;;;36.65;;
55210;SDS011;41082;52.822;6.666;2023-04-10T00:43:55;52.65;;;37.47;;
55210;SDS011;41082;52.822;6.666;2023-04-10T00:46:22;58.75;;;39.55;;
55210;SDS011;41082;52.822;6.666;2023-04-10T00:48:49;57.63;;;40.00;;
55210;SDS011;41082;52.822;6.666;2023-04-10T00:51:16;55.35;;;39.13;;
55210;SDS011;41082;52.822;6.666;2023-04-10T00:53:44;58.88;;;38.42;;
55210;SDS011;41082;52.822;6.666;2023-04-10T00:56:18;58.88;;;39.83;;
55210;SDS011;41082;52.822;6.666;2023-04-10T00:58:44;56.90;;;39.22;;
55210;SDS011;41082;52.822;6.666;2023-04-10T01:01:11;61.85;;;39.85;;
55210;SDS011;41082;52.822;6.666;2023-04-10T01:03:37;63.75;;;41.72;;
55210;SDS011;41082;52.822;6.666;2023-04-10T01:06:07;62.30;;;41.88;;
55210;SDS011;41082;52.822;6.666;2023-04-10T01:11:41;64.55;;;42.33;;
55210;SDS011;41082;52.822;6.666;2023-04-10T01:14:18;62.60;;;42.88;;
55210;SDS011;41082;52.822;6.666;2023-04-10T01:17:10;64.38;;;42.70;;
55210;SDS011;41082;52.822;6.666;2023-04-10T01:19:50;65.57;;;45.22;;
55210;SDS011;41082;52.822;6.666;2023-04-10T01:22:24;68.95;;;44.63;;
55210;SDS011;41082;52.822;6.666;2023-04-10T01:25:03;67.95;;;44.72;;
55210;SDS011;41082;52.822;6.666;2023-04-10T01:28:03;68.32;;;44.45;;
55210;SDS011;41082;52.822;6.666;2023-04-10T01:30:58;69.10;;;44.30;;
55210;SDS011;41082;52.822;6.666;2023-04-10T01:33:28;67.53;;;45.80;;
55210;SDS011;41082;52.822;6.666;2023-04-10T01:38:26;67.50;;;44.80;;
55210;SDS011;41082;52.822;6.666;2023-04-10T01:40:54;70.88;;;47.78;;
55210;SDS011;41082;52.822;6.666;2023-04-10T01:43:22;71.97;;;48.70;;
55210;SDS011;41082;52.822;6.666;2023-04-10T01:45:50;69.88;;;47.38;;
55210;SDS011;41082;52.822;6.666;2023-04-10T01:48:16;68.05;;;47.55;;
55210;SDS011;41082;52.822;6.666;2023-04-10T01:50:44;68.40;;;46.97;;
55210;SDS011;41082;52.822;6.666;2023-04-10T01:53:10;73.38;;;50.03;;
55210;SDS011;41082;52.822;6.666;2023-04-10T01:55:37;72.53;;;48.90;;
55210;SDS011;41082;52.822;6.666;2023-04-10T01:58:03;72.20;;;47.75;;
55210;SDS011;41082;52.822;6.666;2023-04-10T02:00:29;70.20;;;47.50;;
55210;SDS011;41082;52.822;6.666;2023-04-10T02:03:01;72.68;;;48.25;;
55210;SDS011;41082;52.822;6.666;2023-04-10T02:05:27;70.75;;;48.05;;
55210;SDS011;41082;52.822;6.666;2023-04-10T02:08:09;70.63;;;47.17;;
55210;SDS011;41082;52.822;6.666;2023-04-10T02:10:43;71.30;;;48.15;;
55210;SDS011;41082;52.822;6.666;2023-04-10T02:13:19;71.15;;;47.03;;
55210;SDS011;41082;52.822;6.666;2023-04-10T02:15:46;68.20;;;46.85;;
55210;SDS011;41082;52.822;6.666;2023-04-10T02:18:14;68.88;;;47.25;;
55210;SDS011;41082;52.822;6.666;2023-04-10T02:20:41;68.53;;;46.15;;
55210;SDS011;41082;52.822;6.666;2023-04-10T02:23:07;69.13;;;46.53;;
55210;SDS011;41082;52.822;6.666;2023-04-10T02:25:34;70.03;;;45.45;;
55210;SDS011;41082;52.822;6.666;2023-04-10T02:28:03;71.20;;;46.80;;
55210;SDS011;41082;52.822;6.666;2023-04-10T02:30:29;66.60;;;45.28;;
55210;SDS011;41082;52.822;6.666;2023-04-10T02:32:56;63.70;;;44.13;;
55210;SDS011;41082;52.822;6.666;2023-04-10T02:35:22;62.67;;;44.38;;
55210;SDS011;41082;52.822;6.666;2023-04-10T02:37:48;68.65;;;45.63;;
55210;SDS011;41082;52.822;6.666;2023-04-10T02:40:14;66.60;;;46.30;;
55210;SDS011;41082;52.822;6.666;2023-04-10T02:42:40;69.88;;;46.17;;
55210;SDS011;41082;52.822;6.666;2023-04-10T02:45:06;66.47;;;44.72;;
55210;SDS011;41082;52.822;6.666;2023-04-10T02:47:32;65.97;;;45.47;;
55210;SDS011;41082;52.822;6.666;2023-04-10T02:49:58;66.63;;;45.90;;
55210;SDS011;41082;52.822;6.666;2023-04-10T02:52:24;67.75;;;44.28;;
55210;SDS011;41082;52.822;6.666;2023-04-10T02:54:49;66.68;;;45.95;;
55210;SDS011;41082;52.822;6.666;2023-04-10T02:57:16;67.63;;;45.20;;
55210;SDS011;41082;52.822;6.666;2023-04-10T02:59:41;65.57;;;45.10;;
55210;SDS011;41082;52.822;6.666;2023-04-10T03:02:07;62.40;;;45.28;;
55210;SDS011;41082;52.822;6.666;2023-04-10T03:04:33;67.07;;;45.03;;
55210;SDS011;41082;52.822;6.666;2023-04-10T03:06:58;62.83;;;44.50;;
55210;SDS011;41082;52.822;6.666;2023-04-10T03:09:25;65.78;;;44.83;;
55210;SDS011;41082;52.822;6.666;2023-04-10T03:11:50;64.80;;;44.80;;
55210;SDS011;41082;52.822;6.666;2023-04-10T03:14:16;66.68;;;44.70;;
55210;SDS011;41082;52.822;6.666;2023-04-10T03:16:42;68.68;;;45.55;;
55210;SDS011;41082;52.822;6.666;2023-04-10T03:19:08;66.72;;;45.47;;
55210;SDS011;41082;52.822;6.666;2023-04-10T03:21:33;61.72;;;43.42;;
55210;SDS011;41082;52.822;6.666;2023-04-10T03:23:59;64.45;;;44.67;;
55210;SDS011;41082;52.822;6.666;2023-04-10T03:26:25;68.30;;;44.00;;
55210;SDS011;41082;52.822;6.666;2023-04-10T03:28:50;68.88;;;45.97;;
55210;SDS011;41082;52.822;6.666;2023-04-10T03:31:16;66.93;;;45.83;;
55210;SDS011;41082;52.822;6.666;2023-04-10T03:33:42;68.70;;;45.97;;
55210;SDS011;41082;52.822;6.666;2023-04-10T03:36:07;68.80;;;46.08;;
55210;SDS011;41082;52.822;6.666;2023-04-10T03:38:33;65.50;;;44.75;;
55210;SDS011;41082;52.822;6.666;2023-04-10T03:40:59;70.68;;;45.88;;
55210;SDS011;41082;52.822;6.666;2023-04-10T03:43:25;69.22;;;46.65;;
55210;SDS011;41082;52.822;6.666;2023-04-10T03:45:50;71.00;;;47.83;;
55210;SDS011;41082;52.822;6.666;2023-04-10T03:48:16;67.72;;;46.95;;
55210;SDS011;41082;52.822;6.666;2023-04-10T03:50:42;68.90;;;47.33;;
55210;SDS011;41082;52.822;6.666;2023-04-10T03:53:08;71.82;;;49.05;;
55210;SDS011;41082;52.822;6.666;2023-04-10T03:55:33;70.68;;;46.83;;
55210;SDS011;41082;52.822;6.666;2023-04-10T03:57:59;72.20;;;48.85;;
55210;SDS011;41082;52.822;6.666;2023-04-10T04:00:25;68.28;;;46.47;;
55210;SDS011;41082;52.822;6.666;2023-04-10T04:02:51;71.88;;;48.83;;
55210;SDS011;41082;52.822;6.666;2023-04-10T04:05:17;66.55;;;46.83;;
55210;SDS011;41082;52.822;6.666;2023-04-10T04:07:43;71.65;;;48.42;;
55210;SDS011;41082;52.822;6.666;2023-04-10T04:10:09;74.50;;;49.03;;
55210;SDS011;41082;52.822;6.666;2023-04-10T04:12:34;69.03;;;47.88;;
55210;SDS011;41082;52.822;6.666;2023-04-10T04:15:00;70.10;;;47.85;;
55210;SDS011;41082;52.822;6.666;2023-04-10T04:17:26;74.65;;;47.03;;
55210;SDS011;41082;52.822;6.666;2023-04-10T04:19:51;74.35;;;48.65;;
55210;SDS011;41082;52.822;6.666;2023-04-10T04:22:17;74.05;;;49.60;;
55210;SDS011;41082;52.822;6.666;2023-04-10T04:24:43;73.72;;;48.85;;
55210;SDS011;41082;52.822;6.666;2023-04-10T04:27:08;71.40;;;48.60;;
55210;SDS011;41082;52.822;6.666;2023-04-10T04:29:34;69.85;;;48.17;;
55210;SDS011;41082;52.822;6.666;2023-04-10T04:31:59;69.97;;;48.03;;
55210;SDS011;41082;52.822;6.666;2023-04-10T04:34:25;72.57;;;49.42;;
55210;SDS011;41082;52.822;6.666;2023-04-10T04:36:50;71.78;;;48.58;;
55210;SDS011;41082;52.822;6.666;2023-04-10T04:39:16;71.75;;;47.63;;
55210;SDS011;41082;52.822;6.666;2023-04-10T04:41:41;71.80;;;47.67;;
55210;SDS011;41082;52.822;6.666;2023-04-10T04:44:08;68.55;;;46.88;;
55210;SDS011;41082;52.822;6.666;2023-04-10T04:46:33;68.28;;;45.83;;
55210;SDS011;41082;52.822;6.666;2023-04-10T04:48:59;69.00;;;45.97;;
55210;SDS011;41082;52.822;6.666;2023-04-10T04:51:25;65.53;;;45.55;;
55210;SDS011;41082;52.822;6.666;2023-04-10T04:53:51;73.95;;;47.55;;
55210;SDS011;41082;52.822;6.666;2023-04-10T04:56:17;69.22;;;46.90;;
55210;SDS011;41082;52.822;6.666;2023-04-10T04:58:42;68.75;;;45.85;;
55210;SDS011;41082;52.822;6.666;2023-04-10T05:01:08;65.38;;;43.30;;
55210;SDS011;41082;52.822;6.666;2023-04-10T05:03:33;69.85;;;47.03;;
55210;SDS011;41082;52.822;6.666;2023-04-10T05:05:59;66.88;;;45.78;;
55210;SDS011;41082;52.822;6.666;2023-04-10T05:08:24;65.97;;;46.08;;
55210;SDS011;41082;52.822;6.666;2023-04-10T05:10:50;67.20;;;45.65;;
55210;SDS011;41082;52.822;6.666;2023-04-10T05:13:16;65.93;;;44.10;;
55210;SDS011;41082;52.822;6.666;2023-04-10T05:15:42;65.95;;;44.13;;
55210;SDS011;41082;52.822;6.666;2023-04-10T05:18:08;65.38;;;45.00;;
55210;SDS011;41082;52.822;6.666;2023-04-10T05:20:35;68.13;;;44.75;;
55210;SDS011;41082;52.822;6.666;2023-04-10T05:23:01;68.20;;;46.85;;
55210;SDS011;41082;52.822;6.666;2023-04-10T05:25:27;69.03;;;44.92;;
55210;SDS011;41082;52.822;6.666;2023-04-10T05:27:53;65.90;;;44.90;;
55210;SDS011;41082;52.822;6.666;2023-04-10T05:30:18;69.70;;;45.40;;
55210;SDS011;41082;52.822;6.666;2023-04-10T05:32:44;66.22;;;45.25;;
55210;SDS011;41082;52.822;6.666;2023-04-10T05:35:10;62.47;;;43.00;;
55210;SDS011;41082;52.822;6.666;2023-04-10T05:37:36;62.33;;;44.33;;
55210;SDS011;41082;52.822;6.666;2023-04-10T05:40:02;65.68;;;43.53;;
55210;SDS011;41082;52.822;6.666;2023-04-10T05:42:28;67.50;;;44.33;;
55210;SDS011;41082;52.822;6.666;2023-04-10T05:44:53;66.00;;;44.38;;
55210;SDS011;41082;52.822;6.666;2023-04-10T05:47:19;62.65;;;43.83;;
55210;SDS011;41082;52.822;6.666;2023-04-10T05:49:44;64.38;;;43.58;;
55210;SDS011;41082;52.822;6.666;2023-04-10T05:52:10;63.92;;;43.55;;
55210;SDS011;41082;52.822;6.666;2023-04-10T05:54:36;62.17;;;42.30;;
55210;SDS011;41082;52.822;6.666;2023-04-10T05:57:01;63.53;;;43.42;;
55210;SDS011;41082;52.822;6.666;2023-04-10T05:59:27;63.17;;;43.67;;
55210;SDS011;41082;52.822;6.666;2023-04-10T06:01:52;66.80;;;43.75;;
55210;SDS011;41082;52.822;6.666;2023-04-10T06:04:18;64.43;;;44.35;;
55210;SDS011;41082;52.822;6.666;2023-04-10T06:06:45;64.28;;;43.15;;
55210;SDS011;41082;52.822;6.666;2023-04-10T06:09:10;63.55;;;43.00;;
55210;SDS011;41082;52.822;6.666;2023-04-10T06:11:36;63.08;;;42.97;;
55210;SDS011;41082;52.822;6.666;2023-04-10T06:14:02;61.83;;;42.60;;
55210;SDS011;41082;52.822;6.666;2023-04-10T06:16:27;63.13;;;42.58;;
55210;SDS011;41082;52.822;6.666;2023-04-10T06:18:53;66.70;;;44.10;;
55210;SDS011;41082;52.822;6.666;2023-04-10T06:21:19;61.17;;;42.30;;
55210;SDS011;41082;52.822;6.666;2023-04-10T06:23:44;62.28;;;42.50;;
55210;SDS011;41082;52.822;6.666;2023-04-10T06:26:10;64.50;;;43.17;;
55210;SDS011;41082;52.822;6.666;2023-04-10T06:28:36;64.80;;;41.60;;
55210;SDS011;41082;52.822;6.666;2023-04-10T06:31:02;62.17;;;42.30;;
55210;SDS011;41082;52.822;6.666;2023-04-10T06:33:31;63.53;;;42.60;;
55210;SDS011;41082;52.822;6.666;2023-04-10T06:35:57;61.28;;;42.33;;
55210;SDS011;41082;52.822;6.666;2023-04-10T06:38:22;62.17;;;43.15;;
55210;SDS011;41082;52.822;6.666;2023-04-10T06:40:48;61.47;;;42.42;;
55210;SDS011;41082;52.822;6.666;2023-04-10T06:43:13;61.88;;;42.22;;
55210;SDS011;41082;52.822;6.666;2023-04-10T06:45:39;62.05;;;42.72;;
55210;SDS011;41082;52.822;6.666;2023-04-10T06:48:04;58.97;;;41.13;;
55210;SDS011;41082;52.822;6.666;2023-04-10T06:50:30;57.33;;;41.58;;
55210;SDS011;41082;52.822;6.666;2023-04-10T06:52:56;59.08;;;41.08;;
55210;SDS011;41082;52.822;6.666;2023-04-10T06:55:24;59.50;;;41.53;;
55210;SDS011;41082;52.822;6.666;2023-04-10T06:57:50;61.15;;;40.45;;
55210;SDS011;41082;52.822;6.666;2023-04-10T07:00:17;56.88;;;40.97;;
55210;SDS011;41082;52.822;6.666;2023-04-10T07:02:43;55.50;;;38.92;;
55210;SDS011;41082;52.822;6.666;2023-04-10T07:05:09;57.00;;;40.80;;
55210;SDS011;41082;52.822;6.666;2023-04-10T07:07:35;58.30;;;40.78;;
55210;SDS011;41082;52.822;6.666;2023-04-10T07:10:01;56.25;;;41.38;;
55210;SDS011;41082;52.822;6.666;2023-04-10T07:12:26;56.17;;;39.05;;
55210;SDS011;41082;52.822;6.666;2023-04-10T07:14:53;56.80;;;38.67;;
55210;SDS011;41082;52.822;6.666;2023-04-10T07:17:18;54.20;;;37.80;;
55210;SDS011;41082;52.822;6.666;2023-04-10T07:19:44;52.95;;;38.40;;
55210;SDS011;41082;52.822;6.666;2023-04-10T07:22:09;51.40;;;37.42;;
55210;SDS011;41082;52.822;6.666;2023-04-10T07:24:35;55.92;;;36.30;;
55210;SDS011;41082;52.822;6.666;2023-04-10T07:27:01;53.00;;;35.75;;
55210;SDS011;41082;52.822;6.666;2023-04-10T07:29:27;56.42;;;36.33;;
55210;SDS011;41082;52.822;6.666;2023-04-10T07:31:53;50.60;;;36.35;;
55210;SDS011;41082;52.822;6.666;2023-04-10T07:34:19;48.78;;;33.88;;
55210;SDS011;41082;52.822;6.666;2023-04-10T07:36:44;47.88;;;33.80;;
55210;SDS011;41082;52.822;6.666;2023-04-10T07:39:11;49.92;;;34.05;;
55210;SDS011;41082;52.822;6.666;2023-04-10T07:41:36;44.13;;;33.38;;
55210;SDS011;41082;52.822;6.666;2023-04-10T07:44:02;44.45;;;31.60;;
55210;SDS011;41082;52.822;6.666;2023-04-10T07:46:28;45.30;;;31.65;;
55210;SDS011;41082;52.822;6.666;2023-04-10T07:48:53;45.53;;;30.73;;
55210;SDS011;41082;52.822;6.666;2023-04-10T07:51:19;40.92;;;29.08;;
55210;SDS011;41082;52.822;6.666;2023-04-10T07:53:45;40.50;;;28.45;;
55210;SDS011;41082;52.822;6.666;2023-04-10T07:56:15;40.17;;;28.95;;
55210;SDS011;41082;52.822;6.666;2023-04-10T07:58:41;36.30;;;27.30;;
55210;SDS011;41082;52.822;6.666;2023-04-10T08:01:07;38.50;;;29.15;;
55210;SDS011;41082;52.822;6.666;2023-04-10T08:03:39;35.47;;;26.52;;
55210;SDS011;41082;52.822;6.666;2023-04-10T08:06:10;38.80;;;27.77;;
55210;SDS011;41082;52.822;6.666;2023-04-10T08:08:36;35.78;;;26.35;;
55210;SDS011;41082;52.822;6.666;2023-04-10T08:11:06;41.10;;;24.63;;
55210;SDS011;41082;52.822;6.666;2023-04-10T08:13:52;30.65;;;23.30;;
55210;SDS011;41082;52.822;6.666;2023-04-10T08:16:22;33.35;;;23.40;;
55210;SDS011;41082;52.822;6.666;2023-04-10T08:18:55;31.02;;;21.67;;
55210;SDS011;41082;52.822;6.666;2023-04-10T08:21:22;28.00;;;20.85;;
55210;SDS011;41082;52.822;6.666;2023-04-10T08:23:50;26.60;;;20.48;;
55210;SDS011;41082;52.822;6.666;2023-04-10T08:26:17;28.05;;;19.92;;
55210;SDS011;41082;52.822;6.666;2023-04-10T08:28:43;25.83;;;18.08;;
55210;SDS011;41082;52.822;6.666;2023-04-10T08:31:13;23.67;;;17.52;;
55210;SDS011;41082;52.822;6.666;2023-04-10T08:33:38;24.77;;;18.60;;
55210;SDS011;41082;52.822;6.666;2023-04-10T08:36:04;25.25;;;17.50;;
55210;SDS011;41082;52.822;6.666;2023-04-10T08:38:30;23.58;;;17.23;;
55210;SDS011;41082;52.822;6.666;2023-04-10T08:40:56;21.58;;;16.60;;
55210;SDS011;41082;52.822;6.666;2023-04-10T08:43:22;22.58;;;16.90;;
55210;SDS011;41082;52.822;6.666;2023-04-10T08:45:47;21.08;;;16.02;;
55210;SDS011;41082;52.822;6.666;2023-04-10T08:48:15;22.48;;;15.63;;
55210;SDS011;41082;52.822;6.666;2023-04-10T08:50:44;20.08;;;14.82;;
55210;SDS011;41082;52.822;6.666;2023-04-10T08:53:11;18.75;;;15.15;;
55210;SDS011;41082;52.822;6.666;2023-04-10T08:55:38;19.20;;;14.38;;
55210;SDS011;41082;52.822;6.666;2023-04-10T08:58:05;18.92;;;14.63;;
55210;SDS011;41082;52.822;6.666;2023-04-10T09:00:35;18.77;;;13.70;;
55210;SDS011;41082;52.822;6.666;2023-04-10T09:03:03;18.52;;;14.15;;
55210;SDS011;41082;52.822;6.666;2023-04-10T09:05:32;17.38;;;14.18;;
55210;SDS011;41082;52.822;6.666;2023-04-10T09:07:59;17.73;;;13.93;;
55210;SDS011;41082;52.822;6.666;2023-04-10T09:10:25;17.98;;;14.48;;
55210;SDS011;41082;52.822;6.666;2023-04-10T09:12:50;17.67;;;13.10;;
55210;SDS011;41082;52.822;6.666;2023-04-10T09:15:16;15.48;;;12.57;;
55210;SDS011;41082;52.822;6.666;2023-04-10T09:17:58;15.13;;;12.00;;
55210;SDS011;41082;52.822;6.666;2023-04-10T09:20:28;18.45;;;13.77;;
55210;SDS011;41082;52.822;6.666;2023-04-10T09:22:54;17.33;;;13.30;;
55210;SDS011;41082;52.822;6.666;2023-04-10T09:28:03;15.23;;;10.77;;
55210;SDS011;41082;52.822;6.666;2023-04-10T09:33:02;15.45;;;10.82;;
55210;SDS011;41082;52.822;6.666;2023-04-10T09:35:44;13.23;;;10.77;;
55210;SDS011;41082;52.822;6.666;2023-04-10T09:38:14;13.50;;;11.60;;
55210;SDS011;41082;52.822;6.666;2023-04-10T09:40:41;13.95;;;10.82;;
55210;SDS011;41082;52.822;6.666;2023-04-10T09:43:16;12.48;;;10.20;;
55210;SDS011;41082;52.822;6.666;2023-04-10T09:45:49;13.55;;;10.20;;
55210;SDS011;41082;52.822;6.666;2023-04-10T09:48:20;13.10;;;10.95;;
55210;SDS011;41082;52.822;6.666;2023-04-10T09:50:46;12.43;;;9.70;;
55210;SDS011;41082;52.822;6.666;2023-04-10T09:53:13;11.50;;;9.65;;
55210;SDS011;41082;52.822;6.666;2023-04-10T09:55:43;13.70;;;9.85;;
55210;SDS011;41082;52.822;6.666;2023-04-10T09:58:14;13.07;;;10.15;;
55210;SDS011;41082;52.822;6.666;2023-04-10T10:00:41;10.10;;;8.82;;
55210;SDS011;41082;52.822;6.666;2023-04-10T10:03:13;9.23;;;8.13;;
55210;SDS011;41082;52.822;6.666;2023-04-10T10:05:44;11.48;;;8.75;;
55210;SDS011;41082;52.822;6.666;2023-04-10T10:08:12;11.00;;;8.60;;
55210;SDS011;41082;52.822;6.666;2023-04-10T10:10:41;10.93;;;8.43;;
55210;SDS011;41082;52.822;6.666;2023-04-10T10:13:36;11.07;;;8.43;;
55210;SDS011;41082;52.822;6.666;2023-04-10T10:16:14;9.98;;;8.00;;
55210;SDS011;41082;52.822;6.666;2023-04-10T10:18:58;10.25;;;8.70;;
55210;SDS011;41082;52.822;6.666;2023-04-10T10:21:28;9.32;;;7.82;;
55210;SDS011;41082;52.822;6.666;2023-04-10T10:23:57;8.30;;;7.40;;
55210;SDS011;41082;52.822;6.666;2023-04-10T10:26:24;8.60;;;7.57;;
55210;SDS011;41082;52.822;6.666;2023-04-10T10:28:51;9.07;;;7.43;;
55210;SDS011;41082;52.822;6.666;2023-04-10T10:31:17;7.53;;;6.72;;
55210;SDS011;41082;52.822;6.666;2023-04-10T10:33:44;6.32;;;5.72;;
55210;SDS011;41082;52.822;6.666;2023-04-10T10:36:11;7.95;;;6.85;;
55210;SDS011;41082;52.822;6.666;2023-04-10T10:38:40;8.02;;;6.47;;
55210;SDS011;41082;52.822;6.666;2023-04-10T10:41:17;6.65;;;5.80;;
55210;SDS011;41082;52.822;6.666;2023-04-10T10:43:52;10.52;;;6.60;;
55210;SDS011;41082;52.822;6.666;2023-04-10T10:46:46;8.77;;;7.10;;
55210;SDS011;41082;52.822;6.666;2023-04-10T10:49:15;6.95;;;5.97;;
55210;SDS011;41082;52.822;6.666;2023-04-10T10:51:50;7.38;;;5.88;;
55210;SDS011;41082;52.822;6.666;2023-04-10T10:56:54;6.15;;;5.22;;
55210;SDS011;41082;52.822;6.666;2023-04-10T10:59:52;5.90;;;4.53;;
55210;SDS011;41082;52.822;6.666;2023-04-10T11:02:18;5.85;;;5.25;;
55210;SDS011;41082;52.822;6.666;2023-04-10T11:04:44;6.82;;;4.60;;
55210;SDS011;41082;52.822;6.666;2023-04-10T11:07:11;5.25;;;4.70;;
55210;SDS011;41082;52.822;6.666;2023-04-10T11:12:22;5.70;;;4.55;;
55210;SDS011;41082;52.822;6.666;2023-04-10T11:14:56;4.85;;;4.28;;
55210;SDS011;41082;52.822;6.666;2023-04-10T11:20:19;3.97;;;3.58;;
55210;SDS011;41082;52.822;6.666;2023-04-10T11:23:11;4.15;;;3.70;;
55210;SDS011;41082;52.822;6.666;2023-04-10T11:25:53;4.25;;;3.53;;
55210;SDS011;41082;52.822;6.666;2023-04-10T11:28:32;4.45;;;3.20;;
55210;SDS011;41082;52.822;6.666;2023-04-10T11:31:17;5.70;;;3.83;;
55210;SDS011;41082;52.822;6.666;2023-04-10T11:33:46;4.22;;;3.20;;
55210;SDS011;41082;52.822;6.666;2023-04-10T11:36:24;5.95;;;3.40;;
55210;SDS011;41082;52.822;6.666;2023-04-10T11:38:55;4.57;;;3.13;;
55210;SDS011;41082;52.822;6.666;2023-04-10T11:41:32;3.88;;;3.45;;
55210;SDS011;41082;52.822;6.666;2023-04-10T11:44:00;3.97;;;3.17;;
55210;SDS011;41082;52.822;6.666;2023-04-10T11:46:30;3.97;;;2.72;;
55210;SDS011;41082;52.822;6.666;2023-04-10T11:48:57;3.80;;;2.63;;
55210;SDS011;41082;52.822;6.666;2023-04-10T11:51:24;2.78;;;2.38;;
55210;SDS011;41082;52.822;6.666;2023-04-10T11:54:09;3.00;;;2.40;;
55210;SDS011;41082;52.822;6.666;2023-04-10T11:56:36;3.85;;;3.05;;
55210;SDS011;41082;52.822;6.666;2023-04-10T11:59:02;2.90;;;2.50;;
55210;SDS011;41082;52.822;6.666;2023-04-10T12:01:33;3.53;;;2.38;;
55210;SDS011;41082;52.822;6.666;2023-04-10T12:03:59;3.50;;;3.03;;
55210;SDS011;41082;52.822;6.666;2023-04-10T12:06:25;4.40;;;2.50;;
55210;SDS011;41082;52.822;6.666;2023-04-10T12:08:52;5.32;;;3.13;;
55210;SDS011;41082;52.822;6.666;2023-04-10T12:11:19;3.78;;;2.60;;
55210;SDS011;41082;52.822;6.666;2023-04-10T12:13:46;3.90;;;2.97;;
55210;SDS011;41082;52.822;6.666;2023-04-10T12:16:12;3.30;;;2.85;;
55210;SDS011;41082;52.822;6.666;2023-04-10T12:18:38;3.63;;;2.78;;
55210;SDS011;41082;52.822;6.666;2023-04-10T12:21:04;3.25;;;2.53;;
55210;SDS011;41082;52.822;6.666;2023-04-10T12:23:31;3.58;;;2.53;;
55210;SDS011;41082;52.822;6.666;2023-04-10T12:26:07;4.70;;;3.03;;
55210;SDS011;41082;52.822;6.666;2023-04-10T12:28:34;4.40;;;3.38;;
55210;SDS011;41082;52.822;6.666;2023-04-10T12:31:01;4.28;;;3.05;;
55210;SDS011;41082;52.822;6.666;2023-04-10T12:33:27;4.47;;;3.03;;
55210;SDS011;41082;52.822;6.666;2023-04-10T12:35:53;4.88;;;2.88;;
55210;SDS011;41082;52.822;6.666;2023-04-10T12:38:38;4.07;;;2.70;;
55210;SDS011;41082;52.822;6.666;2023-04-10T12:41:06;4.57;;;2.80;;
55210;SDS011;41082;52.822;6.666;2023-04-10T12:43:40;3.53;;;2.65;;
55210;SDS011;41082;52.822;6.666;2023-04-10T12:46:09;9.23;;;3.33;;
55210;SDS011;41082;52.822;6.666;2023-04-10T12:48:53;5.10;;;2.88;;
55210;SDS011;41082;52.822;6.666;2023-04-10T12:51:40;4.22;;;2.83;;
55210;SDS011;41082;52.822;6.666;2023-04-10T12:57:01;4.68;;;2.95;;
55210;SDS011;41082;52.822;6.666;2023-04-10T12:59:28;2.42;;;2.13;;
55210;SDS011;41082;52.822;6.666;2023-04-10T13:01:54;7.45;;;2.90;;
55210;SDS011;41082;52.822;6.666;2023-04-10T13:04:20;3.90;;;2.55;;
55210;SDS011;41082;52.822;6.666;2023-04-10T13:06:47;3.20;;;2.47;;
55210;SDS011;41082;52.822;6.666;2023-04-10T13:09:13;5.93;;;2.72;;
55210;SDS011;41082;52.822;6.666;2023-04-10T13:11:40;7.00;;;2.40;;
55210;SDS011;41082;52.822;6.666;2023-04-10T13:14:06;3.35;;;2.38;;
55210;SDS011;41082;52.822;6.666;2023-04-10T13:16:32;3.05;;;2.33;;
55210;SDS011;41082;52.822;6.666;2023-04-10T13:18:58;5.07;;;2.72;;
55210;SDS011;41082;52.822;6.666;2023-04-10T13:21:23;3.30;;;2.10;;
55210;SDS011;41082;52.822;6.666;2023-04-10T13:23:54;5.13;;;2.65;;
55210;SDS011;41082;52.822;6.666;2023-04-10T13:26:20;3.33;;;3.03;;
55210;SDS011;41082;52.822;6.666;2023-04-10T13:28:46;4.30;;;2.55;;
55210;SDS011;41082;52.822;6.666;2023-04-10T13:31:12;4.93;;;3.25;;
55210;SDS011;41082;52.822;6.666;2023-04-10T13:33:43;5.80;;;2.92;;
55210;SDS011;41082;52.822;6.666;2023-04-10T13:36:11;3.08;;;2.58;;
55210;SDS011;41082;52.822;6.666;2023-04-10T13:38:39;3.50;;;3.20;;
55210;SDS011;41082;52.822;6.666;2023-04-10T13:41:05;4.00;;;3.05;;
55210;SDS011;41082;52.822;6.666;2023-04-10T13:43:31;3.13;;;2.72;;
55210;SDS011;41082;52.822;6.666;2023-04-10T13:45:56;2.63;;;2.38;;
55210;SDS011;41082;52.822;6.666;2023-04-10T13:48:22;2.85;;;2.33;;
55210;SDS011;41082;52.822;6.666;2023-04-10T13:50:47;4.50;;;2.80;;
55210;SDS011;41082;52.822;6.666;2023-04-10T13:53:13;4.47;;;3.20;;
55210;SDS011;41082;52.822;6.666;2023-04-10T13:55:39;3.90;;;2.50;;
55210;SDS011;41082;52.822;6.666;2023-04-10T13:58:07;4.35;;;2.72;;
55210;SDS011;41082;52.822;6.666;2023-04-10T14:00:36;5.28;;;3.08;;
55210;SDS011;41082;52.822;6.666;2023-04-10T14:03:01;3.00;;;2.67;;
55210;SDS011;41082;52.822;6.666;2023-04-10T14:05:27;3.40;;;2.45;;
55210;SDS011;41082;52.822;6.666;2023-04-10T14:07:52;4.03;;;2.83;;
55210;SDS011;41082;52.822;6.666;2023-04-10T14:10:21;3.50;;;2.90;;
55210;SDS011;41082;52.822;6.666;2023-04-10T14:12:47;4.47;;;2.60;;
55210;SDS011;41082;52.822;6.666;2023-04-10T14:15:12;4.65;;;2.35;;
55210;SDS011;41082;52.822;6.666;2023-04-10T14:17:38;4.07;;;3.15;;
55210;SDS011;41082;52.822;6.666;2023-04-10T14:20:04;3.33;;;2.33;;
55210;SDS011;41082;52.822;6.666;2023-04-10T14:22:30;4.43;;;2.42;;
55210;SDS011;41082;52.822;6.666;2023-04-10T14:24:56;3.17;;;2.40;;
55210;SDS011;41082;52.822;6.666;2023-04-10T14:27:21;4.97;;;2.75;;
55210;SDS011;41082;52.822;6.666;2023-04-10T14:29:47;3.80;;;2.85;;
55210;SDS011;41082;52.822;6.666;2023-04-10T14:32:12;4.10;;;2.58;;
55210;SDS011;41082;52.822;6.666;2023-04-10T14:34:38;3.75;;;2.42;;
55210;SDS011;41082;52.822;6.666;2023-04-10T14:37:03;2.40;;;2.05;;
55210;SDS011;41082;52.822;6.666;2023-04-10T14:39:29;3.95;;;2.05;;
55210;SDS011;41082;52.822;6.666;2023-04-10T14:41:55;2.80;;;2.03;;
55210;SDS011;41082;52.822;6.666;2023-04-10T14:44:21;3.33;;;2.10;;
55210;SDS011;41082;52.822;6.666;2023-04-10T14:46:46;3.42;;;1.85;;
55210;SDS011;41082;52.822;6.666;2023-04-10T14:49:12;4.20;;;2.10;;
55210;SDS011;41082;52.822;6.666;2023-04-10T14:51:41;4.55;;;2.40;;
55210;SDS011;41082;52.822;6.666;2023-04-10T14:54:07;3.47;;;2.20;;
55210;SDS011;41082;52.822;6.666;2023-04-10T14:56:33;4.25;;;2.30;;